sensor_id;sensor_type;location;lat;lon;timestamp;pressure;altitude;pressure_sealevel;temperature;humidity
40490;BME280;26196;52.302;10.572;2023-04-16T00:00:16;100705.00;;;14.59;56.59
40490;BME280;26196;52.302;10.572;2023-04-16T00:04:16;100708.44;;;14.61;56.66
40490;BME280;26196;52.302;10.572;2023-04-16T00:08:17;100705.00;;;14.59;56.72
40490;BME280;26196;52.302;10.572;2023-04-16T00:12:17;100707.78;;;14.56;56.91
40490;BME280;26196;52.302;10.572;2023-04-16T00:16:17;100706.97;;;14.54;56.61
40490;BME280;26196;52.302;10.572;2023-04-16T00:20:18;100705.38;;;14.50;56.74
40490;BME280;26196;52.302;10.572;2023-04-16T00:24:19;100709.59;;;14.54;56.85
40490;BME280;26196;52.302;10.572;2023-04-16T00:28:19;100707.81;;;14.54;56.74
40490;BME280;26196;52.302;10.572;2023-04-16T00:32:54;100712.47;;;14.48;56.58
40490;BME280;26196;52.302;10.572;2023-04-16T00:36:54;100715.91;;;14.50;56.24
40490;BME280;26196;52.302;10.572;2023-04-16T00:40:55;100723.00;;;14.48;56.16
40490;BME280;26196;52.302;10.572;2023-04-16T00:45:29;100721.09;;;14.51;56.50
40490;BME280;26196;52.302;10.572;2023-04-16T00:49:30;100731.06;;;14.43;56.34
40490;BME280;26196;52.302;10.572;2023-04-16T00:53:31;100725.69;;;14.46;56.75
40490;BME280;26196;52.302;10.572;2023-04-16T00:58:08;100727.63;;;14.41;56.44
40490;BME280;26196;52.302;10.572;2023-04-16T01:07:19;100738.25;;;14.39;56.49
40490;BME280;26196;52.302;10.572;2023-04-16T01:11:20;100745.06;;;14.45;55.87
40490;BME280;26196;52.302;10.572;2023-04-16T01:19:59;100750.53;;;14.39;56.43
40490;BME280;26196;52.302;10.572;2023-04-16T01:24:03;100753.00;;;14.43;55.63
40490;BME280;26196;52.302;10.572;2023-04-16T01:28:04;100753.97;;;14.41;56.06
40490;BME280;26196;52.302;10.572;2023-04-16T01:32:04;100760.09;;;14.41;56.00
40490;BME280;26196;52.302;10.572;2023-04-16T01:36:05;100759.38;;;14.38;56.23
40490;BME280;26196;52.302;10.572;2023-04-16T01:40:06;100751.50;;;14.36;56.06
40490;BME280;26196;52.302;10.572;2023-04-16T01:44:06;100756.78;;;14.36;56.22
40490;BME280;26196;52.302;10.572;2023-04-16T01:48:07;100760.34;;;14.35;55.46
40490;BME280;26196;52.302;10.572;2023-04-16T01:52:08;100767.44;;;14.33;55.38
40490;BME280;26196;52.302;10.572;2023-04-16T01:56:45;100770.16;;;14.32;55.28
40490;BME280;26196;52.302;10.572;2023-04-16T02:00:46;100745.47;;;14.34;55.32
40490;BME280;26196;52.302;10.572;2023-04-16T02:05:23;100756.91;;;14.33;55.19
40490;BME280;26196;52.302;10.572;2023-04-16T02:09:24;100766.53;;;14.34;55.64
40490;BME280;26196;52.302;10.572;2023-04-16T02:14:01;100763.91;;;14.34;55.49
40490;BME280;26196;52.302;10.572;2023-04-16T02:18:38;100769.28;;;14.31;55.69
40490;BME280;26196;52.302;10.572;2023-04-16T02:22:39;100770.19;;;14.30;54.97
40490;BME280;26196;52.302;10.572;2023-04-16T02:26:39;100780.81;;;14.29;55.21
40490;BME280;26196;52.302;10.572;2023-04-16T02:31:14;100779.06;;;14.28;55.54
40490;BME280;26196;52.302;10.572;2023-04-16T02:35:17;100783.72;;;14.21;55.63
40490;BME280;26196;52.302;10.572;2023-04-16T02:39:17;100782.81;;;14.22;55.63
40490;BME280;26196;52.302;10.572;2023-04-16T02:43:55;100791.72;;;14.18;54.83
40490;BME280;26196;52.302;10.572;2023-04-16T02:47:55;100795.44;;;14.12;54.99
40490;BME280;26196;52.302;10.572;2023-04-16T02:51:56;100803.19;;;14.17;55.21
40490;BME280;26196;52.302;10.572;2023-04-16T02:56:33;100799.72;;;14.15;55.12
40490;BME280;26196;52.302;10.572;2023-04-16T03:00:34;100803.19;;;14.17;55.24
40490;BME280;26196;52.302;10.572;2023-04-16T03:04:34;100803.28;;;14.14;54.78
40490;BME280;26196;52.302;10.572;2023-04-16T03:08:34;100804.16;;;14.14;55.04
40490;BME280;26196;52.302;10.572;2023-04-16T03:12:35;100806.81;;;14.13;54.92
40490;BME280;26196;52.302;10.572;2023-04-16T03:16:35;100806.94;;;14.10;54.92
40490;BME280;26196;52.302;10.572;2023-04-16T03:20:35;100807.78;;;14.10;55.33
40490;BME280;26196;52.302;10.572;2023-04-16T03:24:36;100810.50;;;14.09;54.96
40490;BME280;26196;52.302;10.572;2023-04-16T03:28:37;100813.06;;;14.10;54.92
40490;BME280;26196;52.302;10.572;2023-04-16T03:32:38;100811.34;;;14.09;55.36
40490;BME280;26196;52.302;10.572;2023-04-16T03:36:38;100817.47;;;14.10;55.13
40490;BME280;26196;52.302;10.572;2023-04-16T03:40:39;100820.34;;;14.04;55.07
40490;BME280;26196;52.302;10.572;2023-04-16T03:44:40;100824.69;;;14.05;54.72
40490;BME280;26196;52.302;10.572;2023-04-16T03:48:40;100827.31;;;14.05;54.87
40490;BME280;26196;52.302;10.572;2023-04-16T03:52:40;100831.56;;;14.09;54.97
40490;BME280;26196;52.302;10.572;2023-04-16T03:56:41;100829.09;;;14.04;54.54
40490;BME280;26196;52.302;10.572;2023-04-16T04:00:42;100826.56;;;14.01;54.70
40490;BME280;26196;52.302;10.572;2023-04-16T04:04:42;100836.25;;;14.00;54.28
40490;BME280;26196;52.302;10.572;2023-04-16T04:09:20;100836.53;;;13.93;54.59
40490;BME280;26196;52.302;10.572;2023-04-16T04:13:20;100839.19;;;13.91;54.85
40490;BME280;26196;52.302;10.572;2023-04-16T04:17:20;100841.91;;;13.90;54.47
40490;BME280;26196;52.302;10.572;2023-04-16T04:21:55;100846.19;;;13.92;54.25
40490;BME280;26196;52.302;10.572;2023-04-16T04:25:55;100845.16;;;13.96;54.75
40490;BME280;26196;52.302;10.572;2023-04-16T04:29:56;100843.56;;;13.92;54.33
40490;BME280;26196;52.302;10.572;2023-04-16T04:33:56;100842.63;;;13.93;54.34
40490;BME280;26196;52.302;10.572;2023-04-16T04:37:57;100848.88;;;13.91;54.76
40490;BME280;26196;52.302;10.572;2023-04-16T04:41:57;100842.63;;;13.93;54.02
40490;BME280;26196;52.302;10.572;2023-04-16T04:45:57;100855.69;;;13.96;54.51
40490;BME280;26196;52.302;10.572;2023-04-16T04:49:58;100857.50;;;13.94;54.40
40490;BME280;26196;52.302;10.572;2023-04-16T04:53:58;100861.09;;;13.92;54.51
40490;BME280;26196;52.302;10.572;2023-04-16T04:57:59;100865.41;;;13.94;54.35
40490;BME280;26196;52.302;10.572;2023-04-16T05:01:59;100863.56;;;13.96;54.15
40490;BME280;26196;52.302;10.572;2023-04-16T05:06:35;100875.88;;;13.96;54.25
40490;BME280;26196;52.302;10.572;2023-04-16T05:10:35;100879.47;;;13.93;54.20
40490;BME280;26196;52.302;10.572;2023-04-16T05:14:36;100878.56;;;13.94;54.10
40490;BME280;26196;52.302;10.572;2023-04-16T05:18:36;100883.88;;;13.93;54.44
40490;BME280;26196;52.302;10.572;2023-04-16T05:27:14;100884.75;;;13.93;54.57
40490;BME280;26196;52.302;10.572;2023-04-16T05:31:49;100902.34;;;13.91;54.20
40490;BME280;26196;52.302;10.572;2023-04-16T05:35:50;100908.38;;;13.95;54.31
40490;BME280;26196;52.302;10.572;2023-04-16T05:39:50;100905.06;;;13.90;54.55
40490;BME280;26196;52.302;10.572;2023-04-16T05:43:50;100917.19;;;13.94;54.81
40490;BME280;26196;52.302;10.572;2023-04-16T05:47:51;100910.22;;;13.93;54.45
40490;BME280;26196;52.302;10.572;2023-04-16T05:52:28;100917.19;;;13.94;54.33
40490;BME280;26196;52.302;10.572;2023-04-16T05:56:28;100922.44;;;13.94;53.89
40490;BME280;26196;52.302;10.572;2023-04-16T06:01:06;100921.59;;;13.93;54.32
40490;BME280;26196;52.302;10.572;2023-04-16T06:05:43;100924.25;;;13.92;54.67
40490;BME280;26196;52.302;10.572;2023-04-16T06:09:44;100925.13;;;13.92;54.09
40490;BME280;26196;52.302;10.572;2023-04-16T06:13:44;100929.69;;;13.87;54.08
40490;BME280;26196;52.302;10.572;2023-04-16T06:17:45;100926.25;;;13.85;54.75
40490;BME280;26196;52.302;10.572;2023-04-16T06:22:19;100934.84;;;13.90;54.44
40490;BME280;26196;52.302;10.572;2023-04-16T06:31:31;100953.16;;;13.93;54.25
40490;BME280;26196;52.302;10.572;2023-04-16T06:40:46;100960.06;;;13.97;54.55
40490;BME280;26196;52.302;10.572;2023-04-16T06:44:47;100961.88;;;13.95;54.70
40490;BME280;26196;52.302;10.572;2023-04-16T06:49:21;100965.41;;;13.94;54.07
40490;BME280;26196;52.302;10.572;2023-04-16T06:53:22;100972.50;;;13.92;54.49
40490;BME280;26196;52.302;10.572;2023-04-16T06:57:57;100967.13;;;13.95;54.06
40490;BME280;26196;52.302;10.572;2023-04-16T07:01:57;100966.22;;;13.96;54.33
40490;BME280;26196;52.302;10.572;2023-04-16T07:11:09;100980.91;;;14.04;54.35
40490;BME280;26196;52.302;10.572;2023-04-16T07:15:47;100982.00;;;13.96;54.27
40490;BME280;26196;52.302;10.572;2023-04-16T07:19:47;100993.34;;;13.98;54.67
40490;BME280;26196;52.302;10.572;2023-04-16T07:24:25;100989.91;;;13.96;54.46
40490;BME280;26196;52.302;10.572;2023-04-16T07:29:02;100989.03;;;13.96;54.43
40490;BME280;26196;52.302;10.572;2023-04-16T07:33:40;100994.28;;;13.97;54.55
40490;BME280;26196;52.302;10.572;2023-04-16T07:37:40;101000.38;;;13.98;54.74
40490;BME280;26196;52.302;10.572;2023-04-16T07:41:42;101007.47;;;13.96;55.19
40490;BME280;26196;52.302;10.572;2023-04-16T07:45:42;101002.25;;;13.94;54.68
40490;BME280;26196;52.302;10.572;2023-04-16T07:49:42;101014.44;;;13.97;54.94
40490;BME280;26196;52.302;10.572;2023-04-16T07:54:20;101012.59;;;14.00;54.67
40490;BME280;26196;52.302;10.572;2023-04-16T08:08:09;101021.38;;;13.99;54.66
40490;BME280;26196;52.302;10.572;2023-04-16T08:12:46;101039.75;;;14.01;54.92
40490;BME280;26196;52.302;10.572;2023-04-16T08:21:24;101048.41;;;14.05;54.83
40490;BME280;26196;52.302;10.572;2023-04-16T08:25:25;101048.41;;;14.05;55.11
40490;BME280;26196;52.302;10.572;2023-04-16T08:29:25;101058.91;;;14.06;54.52
40490;BME280;26196;52.302;10.572;2023-04-16T08:33:25;101054.50;;;14.07;54.79
40490;BME280;26196;52.302;10.572;2023-04-16T08:38:03;101062.44;;;14.05;54.63
40490;BME280;26196;52.302;10.572;2023-04-16T08:46:43;101079.22;;;14.03;55.22
40490;BME280;26196;52.302;10.572;2023-04-16T08:51:17;101083.53;;;14.04;55.00
40490;BME280;26196;52.302;10.572;2023-04-16T08:55:52;101079.97;;;14.06;54.94
40490;BME280;26196;52.302;10.572;2023-04-16T08:59:55;101085.97;;;14.10;54.73
40490;BME280;26196;52.302;10.572;2023-04-16T09:04:30;101084.38;;;14.06;55.15
40490;BME280;26196;52.302;10.572;2023-04-16T09:13:30;101094.91;;;14.06;55.27
40490;BME280;26196;52.302;10.572;2023-04-16T09:18:04;101093.13;;;14.06;55.46
40490;BME280;26196;52.302;10.572;2023-04-16T09:22:42;101096.59;;;14.07;54.94
40490;BME280;26196;52.302;10.572;2023-04-16T09:27:19;101102.91;;;14.03;55.48
40490;BME280;26196;52.302;10.572;2023-04-16T09:40:35;101114.31;;;14.01;55.58
40490;BME280;26196;52.302;10.572;2023-04-16T09:44:37;101113.56;;;13.98;55.63
40490;BME280;26196;52.302;10.572;2023-04-16T09:48:37;101112.50;;;14.04;55.56
40490;BME280;26196;52.302;10.572;2023-04-16T09:52:38;101113.34;;;14.04;55.52
40490;BME280;26196;52.302;10.572;2023-04-16T09:57:13;101120.44;;;14.02;55.34
40490;BME280;26196;52.302;10.572;2023-04-16T10:01:48;101123.06;;;14.02;55.70
40490;BME280;26196;52.302;10.572;2023-04-16T10:06:23;101135.34;;;14.03;55.10
40490;BME280;26196;52.302;10.572;2023-04-16T10:10:58;101138.84;;;14.02;55.69
40490;BME280;26196;52.302;10.572;2023-04-16T10:14:58;101137.72;;;14.11;54.99
40490;BME280;26196;52.302;10.572;2023-04-16T10:24:10;101141.78;;;14.21;55.45
40490;BME280;26196;52.302;10.572;2023-04-16T10:28:46;101144.41;;;14.21;55.24
40490;BME280;26196;52.302;10.572;2023-04-16T10:37:30;101150.41;;;14.26;55.10
40490;BME280;26196;52.302;10.572;2023-04-16T10:41:31;101149.50;;;14.26;54.99
40490;BME280;26196;52.302;10.572;2023-04-16T10:55:19;101155.34;;;14.35;55.12
40490;BME280;26196;52.302;10.572;2023-04-16T11:09:23;101170.31;;;14.35;55.53
40490;BME280;26196;52.302;10.572;2023-04-16T11:13:45;101171.25;;;14.32;55.53
40490;BME280;26196;52.302;10.572;2023-04-16T11:18:20;101167.34;;;14.44;54.89
40490;BME280;26196;52.302;10.572;2023-04-16T11:22:58;101175.19;;;14.47;55.22
40490;BME280;26196;52.302;10.572;2023-04-16T11:27:35;101172.00;;;14.36;56.11
40490;BME280;26196;52.302;10.572;2023-04-16T11:36:48;101179.97;;;14.34;55.85
40490;BME280;26196;52.302;10.572;2023-04-16T11:41:22;101172.97;;;14.33;55.87
40490;BME280;26196;52.302;10.572;2023-04-16T11:50:35;101173.78;;;14.35;56.38
40490;BME280;26196;52.302;10.572;2023-04-16T11:55:11;101174.59;;;14.37;56.38
40490;BME280;26196;52.302;10.572;2023-04-16T11:59:45;101176.31;;;14.38;56.22
40490;BME280;26196;52.302;10.572;2023-04-16T12:04:22;101178.06;;;14.39;56.86
40490;BME280;26196;52.302;10.572;2023-04-16T12:08:58;101181.47;;;14.41;57.23
40490;BME280;26196;52.302;10.572;2023-04-16T12:18:13;101179.56;;;14.47;57.75
40490;BME280;26196;52.302;10.572;2023-04-16T12:22:15;101178.72;;;14.46;58.07
40490;BME280;26196;52.302;10.572;2023-04-16T12:36:15;101180.84;;;14.63;58.14
40490;BME280;26196;52.302;10.572;2023-04-16T12:40:38;101181.59;;;14.66;57.98
40490;BME280;26196;52.302;10.572;2023-04-16T12:45:15;101178.91;;;14.68;58.04
40490;BME280;26196;52.302;10.572;2023-04-16T12:49:50;101172.69;;;14.71;58.61
40490;BME280;26196;52.302;10.572;2023-04-16T12:54:24;101188.41;;;14.72;59.81
40490;BME280;26196;52.302;10.572;2023-04-16T13:03:24;101184.78;;;14.76;58.64
40490;BME280;26196;52.302;10.572;2023-04-16T13:11:59;101186.50;;;14.77;59.64
40490;BME280;26196;52.302;10.572;2023-04-16T13:21:12;101192.56;;;14.79;60.49
40490;BME280;26196;52.302;10.572;2023-04-16T13:25:49;101189.91;;;14.81;61.09
40490;BME280;26196;52.302;10.572;2023-04-16T13:35:02;101195.06;;;14.84;61.46
40490;BME280;26196;52.302;10.572;2023-04-16T13:39:40;101196.72;;;14.86;62.66
40490;BME280;26196;52.302;10.572;2023-04-16T13:44:18;101191.38;;;14.88;62.86
40490;BME280;26196;52.302;10.572;2023-04-16T13:52:56;101191.25;;;14.93;62.35
40490;BME280;26196;52.302;10.572;2023-04-16T13:57:33;101187.75;;;14.92;61.18
40490;BME280;26196;52.302;10.572;2023-04-16T14:01:34;101182.38;;;14.95;61.24
40490;BME280;26196;52.302;10.572;2023-04-16T14:05:34;101188.38;;;14.99;61.41
40490;BME280;26196;52.302;10.572;2023-04-16T14:10:09;101187.50;;;15.00;61.46
40490;BME280;26196;52.302;10.572;2023-04-16T14:14:44;101186.56;;;15.01;61.28
40490;BME280;26196;52.302;10.572;2023-04-16T14:18:45;101177.84;;;14.99;61.39
40490;BME280;26196;52.302;10.572;2023-04-16T14:22:45;101180.31;;;15.03;62.19
40490;BME280;26196;52.302;10.572;2023-04-16T14:27:19;101180.22;;;15.06;62.17
40490;BME280;26196;52.302;10.572;2023-04-16T14:31:57;101183.72;;;15.07;62.53
40490;BME280;26196;52.302;10.572;2023-04-16T14:45:48;101187.91;;;15.13;62.36
40490;BME280;26196;52.302;10.572;2023-04-16T14:55:00;101190.38;;;15.17;61.87
40490;BME280;26196;52.302;10.572;2023-04-16T14:59:37;101196.53;;;15.18;61.12
40490;BME280;26196;52.302;10.572;2023-04-16T15:08:34;101196.34;;;15.22;60.57
40490;BME280;26196;52.302;10.572;2023-04-16T15:13:08;101191.97;;;15.23;60.57
40490;BME280;26196;52.302;10.572;2023-04-16T15:17:46;101198.94;;;15.24;60.71
40490;BME280;26196;52.302;10.572;2023-04-16T15:27:00;101193.56;;;15.27;59.51
40490;BME280;26196;52.302;10.572;2023-04-16T15:35:58;101201.41;;;15.28;59.19
40490;BME280;26196;52.302;10.572;2023-04-16T15:40:35;101202.28;;;15.29;59.52
40490;BME280;26196;52.302;10.572;2023-04-16T15:45:10;101203.97;;;15.30;59.26
40490;BME280;26196;52.302;10.572;2023-04-16T15:49:10;101199.59;;;15.30;58.77
40490;BME280;26196;52.302;10.572;2023-04-16T15:53:10;101211.00;;;15.31;59.11
40490;BME280;26196;52.302;10.572;2023-04-16T15:57:12;101209.19;;;15.33;58.86
40490;BME280;26196;52.302;10.572;2023-04-16T16:01:47;101212.66;;;15.34;58.92
40490;BME280;26196;52.302;10.572;2023-04-16T16:10:25;101223.16;;;15.35;59.08
40490;BME280;26196;52.302;10.572;2023-04-16T16:19:03;101227.44;;;15.38;58.77
40490;BME280;26196;52.302;10.572;2023-04-16T16:23:04;101229.19;;;15.39;59.03
40490;BME280;26196;52.302;10.572;2023-04-16T16:27:04;101229.19;;;15.39;58.98
40490;BME280;26196;52.302;10.572;2023-04-16T16:31:39;101236.13;;;15.41;59.20
40490;BME280;26196;52.302;10.572;2023-04-16T16:35:39;101236.94;;;15.43;58.76
40490;BME280;26196;52.302;10.572;2023-04-16T16:39:39;101235.22;;;15.42;59.15
40490;BME280;26196;52.302;10.572;2023-04-16T16:43:40;101239.59;;;15.43;58.92
40490;BME280;26196;52.302;10.572;2023-04-16T16:48:17;101241.31;;;15.44;58.91
40490;BME280;26196;52.302;10.572;2023-04-16T16:52:21;101239.75;;;15.39;58.73
40490;BME280;26196;52.302;10.572;2023-04-16T16:56:55;101245.72;;;15.44;58.41
40490;BME280;26196;52.302;10.572;2023-04-16T17:05:52;101249.13;;;15.46;58.31
40490;BME280;26196;52.302;10.572;2023-04-16T17:10:27;101258.78;;;15.47;58.37
40490;BME280;26196;52.302;10.572;2023-04-16T17:14:27;101254.50;;;15.44;58.29
40490;BME280;26196;52.302;10.572;2023-04-16T17:18:28;101268.16;;;15.56;57.34
40490;BME280;26196;52.302;10.572;2023-04-16T17:23:02;101273.53;;;15.52;57.24
40490;BME280;26196;52.302;10.572;2023-04-16T17:27:37;101282.44;;;15.50;58.50
40490;BME280;26196;52.302;10.572;2023-04-16T17:32:14;101285.09;;;15.48;58.75
40490;BME280;26196;52.302;10.572;2023-04-16T17:36:49;101286.59;;;15.57;57.38
40490;BME280;26196;52.302;10.572;2023-04-16T17:41:26;101290.22;;;15.53;58.95
40490;BME280;26196;52.302;10.572;2023-04-16T17:50:41;101301.63;;;15.53;58.00
40490;BME280;26196;52.302;10.572;2023-04-16T18:08:26;101324.50;;;15.54;58.84
40490;BME280;26196;52.302;10.572;2023-04-16T18:13:01;101315.75;;;15.52;59.58
40490;BME280;26196;52.302;10.572;2023-04-16T18:21:12;101324.53;;;15.53;59.76
40490;BME280;26196;52.302;10.572;2023-04-16T18:25:49;101331.56;;;15.54;59.53
40490;BME280;26196;52.302;10.572;2023-04-16T18:30:27;101328.84;;;15.56;59.45
40490;BME280;26196;52.302;10.572;2023-04-16T18:39:38;101343.78;;;15.57;59.61
40490;BME280;26196;52.302;10.572;2023-04-16T18:44:13;101350.81;;;15.56;59.58
40490;BME280;26196;52.302;10.572;2023-04-16T18:48:48;101354.25;;;15.58;59.57
40490;BME280;26196;52.302;10.572;2023-04-16T18:53:26;101371.88;;;15.58;59.48
40490;BME280;26196;52.302;10.572;2023-04-16T19:02:24;101376.41;;;15.54;59.34
40490;BME280;26196;52.302;10.572;2023-04-16T19:06:58;101376.94;;;15.64;57.23
40490;BME280;26196;52.302;10.572;2023-04-16T19:11:35;101383.41;;;15.55;58.23
40490;BME280;26196;52.302;10.572;2023-04-16T19:16:10;101387.94;;;15.51;57.99
40490;BME280;26196;52.302;10.572;2023-04-16T19:20:11;101385.34;;;15.50;57.91
40490;BME280;26196;52.302;10.572;2023-04-16T19:24:48;101384.47;;;15.49;57.64
40490;BME280;26196;52.302;10.572;2023-04-16T19:29:26;101388.97;;;15.46;57.70
40490;BME280;26196;52.302;10.572;2023-04-16T19:33:26;101388.78;;;15.52;57.36
40490;BME280;26196;52.302;10.572;2023-04-16T19:37:27;101383.53;;;15.50;57.66
40490;BME280;26196;52.302;10.572;2023-04-16T19:45:47;101403.03;;;15.46;57.60
40490;BME280;26196;52.302;10.572;2023-04-16T19:54:22;101396.22;;;15.41;57.75
40490;BME280;26196;52.302;10.572;2023-04-16T19:58:23;101397.88;;;15.43;57.24
40490;BME280;26196;52.302;10.572;2023-04-16T20:02:24;101391.91;;;15.38;57.52
40490;BME280;26196;52.302;10.572;2023-04-16T20:06:24;101388.44;;;15.36;57.42
40490;BME280;26196;52.302;10.572;2023-04-16T20:10:25;101396.28;;;15.38;57.42
40490;BME280;26196;52.302;10.572;2023-04-16T20:14:26;101392.75;;;15.39;57.23
40490;BME280;26196;52.302;10.572;2023-04-16T20:18:27;101388.53;;;15.33;57.12
40490;BME280;26196;52.302;10.572;2023-04-16T20:22:27;101390.41;;;15.29;56.82
40490;BME280;26196;52.302;10.572;2023-04-16T20:27:02;101393.19;;;15.25;56.48
40490;BME280;26196;52.302;10.572;2023-04-16T20:31:40;101407.25;;;15.25;56.96
40490;BME280;26196;52.302;10.572;2023-04-16T20:35:41;101398.41;;;15.26;57.08
40490;BME280;26196;52.302;10.572;2023-04-16T20:39:42;101405.50;;;15.24;56.44
40490;BME280;26196;52.302;10.572;2023-04-16T20:44:18;101398.53;;;15.23;56.23
40490;BME280;26196;52.302;10.572;2023-04-16T20:48:18;101403.09;;;15.18;56.38
40490;BME280;26196;52.302;10.572;2023-04-16T20:52:19;101401.44;;;15.14;56.20
40490;BME280;26196;52.302;10.572;2023-04-16T20:56:20;101398.75;;;15.16;56.23
40490;BME280;26196;52.302;10.572;2023-04-16T21:00:20;101400.66;;;15.12;56.01
40490;BME280;26196;52.302;10.572;2023-04-16T21:04:21;101400.66;;;15.12;56.10
40490;BME280;26196;52.302;10.572;2023-04-16T21:12:58;101402.34;;;15.15;56.25
40490;BME280;26196;52.302;10.572;2023-04-16T21:16:59;101400.69;;;15.10;56.17
40490;BME280;26196;52.302;10.572;2023-04-16T21:21:33;101408.75;;;15.06;55.90
40490;BME280;26196;52.302;10.572;2023-04-16T21:25:33;101411.28;;;15.09;56.03
40490;BME280;26196;52.302;10.572;2023-04-16T21:29:34;101413.97;;;15.07;56.06
40490;BME280;26196;52.302;10.572;2023-04-16T21:33:34;101415.66;;;15.10;56.25
40490;BME280;26196;52.302;10.572;2023-04-16T21:37:35;101414.94;;;15.05;56.06
40490;BME280;26196;52.302;10.572;2023-04-16T21:42:09;101413.19;;;15.04;56.06
40490;BME280;26196;52.302;10.572;2023-04-16T21:46:10;101415.81;;;15.04;55.99
40490;BME280;26196;52.302;10.572;2023-04-16T21:50:44;101422.13;;;15.00;55.71
40490;BME280;26196;52.302;10.572;2023-04-16T21:54:45;101422.16;;;14.98;55.81
40490;BME280;26196;52.302;10.572;2023-04-16T21:58:46;101424.78;;;14.98;55.91
40490;BME280;26196;52.302;10.572;2023-04-16T22:03:21;101427.50;;;14.97;56.10
40490;BME280;26196;52.302;10.572;2023-04-16T22:07:56;101421.41;;;14.95;56.12
40490;BME280;26196;52.302;10.572;2023-04-16T22:11:56;101420.56;;;14.93;56.26
40490;BME280;26196;52.302;10.572;2023-04-16T22:16:31;101410.88;;;14.93;55.73
40490;BME280;26196;52.302;10.572;2023-04-16T22:20:32;101418.75;;;14.95;55.81
40490;BME280;26196;52.302;10.572;2023-04-16T22:25:09;101417.09;;;14.92;56.13
40490;BME280;26196;52.302;10.572;2023-04-16T22:29:09;101426.81;;;14.90;56.02
40490;BME280;26196;52.302;10.572;2023-04-16T22:33:10;101425.03;;;14.91;55.75
40490;BME280;26196;52.302;10.572;2023-04-16T22:37:10;101424.22;;;14.88;55.48
40490;BME280;26196;52.302;10.572;2023-04-16T22:41:10;101422.47;;;14.89;55.97
40490;BME280;26196;52.302;10.572;2023-04-16T22:45:48;101431.31;;;14.86;56.17
40490;BME280;26196;52.302;10.572;2023-04-16T22:49:49;101430.47;;;14.86;55.74
40490;BME280;26196;52.302;10.572;2023-04-16T22:53:50;101427.00;;;14.84;55.86
40490;BME280;26196;52.302;10.572;2023-04-16T22:57:50;101419.31;;;14.76;56.02
40490;BME280;26196;52.302;10.572;2023-04-16T23:02:09;101426.22;;;14.80;55.71
40490;BME280;26196;52.302;10.572;2023-04-16T23:06:10;101428.84;;;14.80;55.47
40490;BME280;26196;52.302;10.572;2023-04-16T23:10:10;101428.00;;;14.80;55.99
40490;BME280;26196;52.302;10.572;2023-04-16T23:14:11;101429.88;;;14.76;55.31
40490;BME280;26196;52.302;10.572;2023-04-16T23:18:12;101432.50;;;14.76;55.56
40490;BME280;26196;52.302;10.572;2023-04-16T23:26:51;101440.44;;;14.75;55.65
40490;BME280;26196;52.302;10.572;2023-04-16T23:31:29;101437.91;;;14.72;55.98
40490;BME280;26196;52.302;10.572;2023-04-16T23:39:40;101434.41;;;14.71;55.02
40490;BME280;26196;52.302;10.572;2023-04-16T23:43:40;101430.97;;;14.68;55.51
40490;BME280;26196;52.302;10.572;2023-04-16T23:48:14;101442.47;;;14.65;55.47
40490;BME280;26196;52.302;10.572;2023-04-16T23:52:15;101445.06;;;14.66;55.08
40490;BME280;26196;52.302;10.572;2023-04-16T23:56:52;101441.69;;;14.63;54.91
